createdAt,value
2023-02-02T00:01:50.263Z,61.48
2023-02-02T00:04:22.195Z,61.24
2023-02-02T00:06:49.418Z,62.03
2023-02-02T00:09:18.805Z,62.14
2023-02-02T00:11:48.276Z,61.60
2023-02-02T00:14:15.359Z,61.64
2023-02-02T00:16:48.857Z,61.27
2023-02-02T00:19:22.907Z,61.40
2023-02-02T00:21:49.892Z,61.82
2023-02-02T00:24:20.767Z,61.64
2023-02-02T00:26:54.221Z,61.80
2023-02-02T00:29:30.945Z,61.97
2023-02-02T00:31:58.029Z,61.90
2023-02-02T00:34:25.346Z,62.56
2023-02-02T00:36:52.449Z,62.21
2023-02-02T00:39:22.784Z,61.77
2023-02-02T00:41:49.718Z,62.49
2023-02-02T00:44:34.973Z,62.14
2023-02-02T00:47:02.544Z,62.64
2023-02-02T00:49:29.545Z,62.21
2023-02-02T00:51:56.384Z,62.01
2023-02-02T00:54:23.270Z,62.79
2023-02-02T00:56:50.152Z,63.09
2023-02-02T00:59:16.984Z,62.93
2023-02-02T01:01:43.837Z,63.87
2023-02-02T01:04:18.449Z,63.48
2023-02-02T01:06:45.221Z,63.37
2023-02-02T01:09:13.409Z,63.12
2023-02-02T01:11:40.294Z,62.95
2023-02-02T01:14:07.150Z,63.98
2023-02-02T01:16:34.214Z,64.06
2023-02-02T01:19:01.127Z,64.00
2023-02-02T01:21:28.060Z,64.54
2023-02-02T01:23:54.865Z,65.12
2023-02-02T01:26:21.768Z,65.87
2023-02-02T01:28:48.668Z,66.21
2023-02-02T01:31:18.735Z,66.26
2023-02-02T01:33:47.586Z,66.15
2023-02-02T01:36:18.611Z,66.59
2023-02-02T01:38:46.326Z,67.56
2023-02-02T01:41:17.801Z,66.03
2023-02-02T01:43:44.489Z,66.29
2023-02-02T01:46:36.261Z,66.38
2023-02-02T01:49:09.165Z,65.88
2023-02-02T01:51:48.381Z,66.17
2023-02-02T01:54:36.281Z,65.45
2023-02-02T01:57:11.794Z,65.41
2023-02-02T01:59:39.185Z,65.67
2023-02-02T02:02:06.643Z,64.70
2023-02-02T02:04:34.451Z,64.44
2023-02-02T02:07:02.890Z,64.84
2023-02-02T02:09:29.740Z,64.79
2023-02-02T02:11:56.892Z,66.32
2023-02-02T02:14:42.762Z,65.00
2023-02-02T02:17:37.832Z,64.23
2023-02-02T02:20:32.207Z,64.08
2023-02-02T02:23:33.607Z,63.50
2023-02-02T02:26:43.563Z,64.97
2023-02-02T02:29:25.312Z,66.37
2023-02-02T02:32:13.254Z,67.26
2023-02-02T02:35:02.154Z,66.76
2023-02-02T02:37:30.560Z,67.19
2023-02-02T02:40:13.948Z,66.71
2023-02-02T02:42:47.199Z,65.99
2023-02-02T02:45:14.868Z,65.30
2023-02-02T02:47:42.652Z,66.21
2023-02-02T02:50:10.900Z,65.53
2023-02-02T02:52:38.479Z,67.94
2023-02-02T02:55:07.495Z,68.88
2023-02-02T02:57:43.469Z,68.33
2023-02-02T03:00:27.681Z,67.71
2023-02-02T03:03:41.934Z,66.82
2023-02-02T03:06:17.894Z,67.46
2023-02-02T03:08:52.956Z,67.83
2023-02-02T03:11:20.853Z,67.39
2023-02-02T03:13:48.804Z,67.49
2023-02-02T03:16:16.466Z,67.98
2023-02-02T03:18:43.620Z,67.96
2023-02-02T03:21:10.540Z,69.07
2023-02-02T03:23:38.590Z,68.09
2023-02-02T03:26:05.886Z,69.35
2023-02-02T03:28:33.096Z,69.25
2023-02-02T03:31:03.976Z,69.38
2023-02-02T03:33:33.403Z,68.22
2023-02-02T03:36:00.260Z,67.59
2023-02-02T03:38:27.132Z,68.10
2023-02-02T03:40:53.999Z,68.57
2023-02-02T03:43:24.943Z,67.93
2023-02-02T03:46:01.137Z,69.90
2023-02-02T03:48:28.510Z,69.47
2023-02-02T03:50:55.447Z,69.05
2023-02-02T03:53:23.250Z,70.46
2023-02-02T03:55:50.097Z,71.61
2023-02-02T03:58:17.613Z,69.74
2023-02-02T04:00:44.497Z,71.49
2023-02-02T04:03:11.322Z,70.03
2023-02-02T04:05:38.151Z,70.06
2023-02-02T04:08:05.314Z,69.76
2023-02-02T04:10:32.158Z,69.55
2023-02-02T04:12:59.052Z,69.46
2023-02-02T04:15:26.182Z,70.24
2023-02-02T04:17:53.279Z,69.26
2023-02-02T04:20:20.218Z,69.15
2023-02-02T04:22:46.999Z,68.61
2023-02-02T04:25:13.915Z,69.52
2023-02-02T04:27:40.767Z,70.10
2023-02-02T04:30:08.983Z,70.42
2023-02-02T04:32:35.853Z,71.30
2023-02-02T04:35:02.670Z,71.37
2023-02-02T04:37:32.241Z,71.74
2023-02-02T04:39:59.175Z,72.23
2023-02-02T04:42:26.095Z,72.46
2023-02-02T04:44:52.928Z,72.10
2023-02-02T04:47:19.793Z,71.81
2023-02-02T04:49:46.650Z,72.11
2023-02-02T04:52:13.588Z,71.89
2023-02-02T04:54:40.452Z,71.96
2023-02-02T04:57:07.336Z,71.52
2023-02-02T04:59:34.187Z,71.95
2023-02-02T05:02:02.452Z,72.52
2023-02-02T05:04:29.381Z,72.36
2023-02-02T05:06:56.481Z,72.23
2023-02-02T05:09:23.379Z,72.24
2023-02-02T05:11:50.195Z,71.72
2023-02-02T05:14:18.468Z,71.95
2023-02-02T05:16:45.568Z,70.80
2023-02-02T05:19:12.907Z,72.39
2023-02-02T05:21:39.734Z,71.02
2023-02-02T05:24:06.836Z,70.61
2023-02-02T05:26:33.784Z,71.36
2023-02-02T05:29:00.592Z,71.36
2023-02-02T05:31:27.515Z,71.29
2023-02-02T05:33:54.495Z,71.12
2023-02-02T05:36:21.365Z,70.55
2023-02-02T05:38:48.247Z,71.18
2023-02-02T05:41:15.075Z,69.89
2023-02-02T05:43:41.982Z,69.55
2023-02-02T05:46:08.936Z,69.67
2023-02-02T05:48:35.791Z,69.91
2023-02-02T05:51:06.923Z,69.66
2023-02-02T05:53:33.735Z,70.24
2023-02-02T05:56:00.585Z,70.51
2023-02-02T05:58:29.595Z,70.08
2023-02-02T06:00:56.920Z,69.58
2023-02-02T06:03:24.417Z,70.88
2023-02-02T06:05:51.352Z,70.47
2023-02-02T06:08:18.144Z,70.01
2023-02-02T06:10:45.365Z,70.09
2023-02-02T06:13:12.293Z,70.01
2023-02-02T06:15:39.184Z,69.32
2023-02-02T06:18:08.257Z,69.43
2023-02-02T06:20:35.946Z,69.54
2023-02-02T06:23:02.977Z,69.02
2023-02-02T06:25:29.824Z,69.79
2023-02-02T06:27:58.546Z,69.06
2023-02-02T06:30:25.927Z,69.50
2023-02-02T06:32:53.009Z,68.39
2023-02-02T06:35:20.159Z,68.75
2023-02-02T06:37:47.085Z,68.54
2023-02-02T06:40:13.970Z,68.97
2023-02-02T06:42:41.050Z,68.88
2023-02-02T06:45:08.687Z,68.52
2023-02-02T06:47:35.523Z,68.35
2023-02-02T06:50:02.677Z,68.83
2023-02-02T06:52:29.623Z,68.53
2023-02-02T06:54:56.490Z,69.11
2023-02-02T06:57:23.309Z,68.90
2023-02-02T06:59:51.194Z,69.42
2023-02-02T07:02:18.076Z,68.85
2023-02-02T07:04:44.923Z,70.21
2023-02-02T07:07:11.705Z,69.56
2023-02-02T07:09:38.587Z,70.45
2023-02-02T07:12:05.986Z,70.49
2023-02-02T07:14:32.872Z,70.69
2023-02-02T07:16:59.652Z,70.38
2023-02-02T07:19:26.635Z,69.96
2023-02-02T07:21:53.450Z,70.55
2023-02-02T07:24:20.285Z,71.29
2023-02-02T07:26:47.139Z,70.55
2023-02-02T07:29:14.411Z,70.98
2023-02-02T07:31:41.793Z,71.36
2023-02-02T07:34:08.823Z,72.12
2023-02-02T07:36:36.265Z,71.01
2023-02-02T07:39:05.088Z,71.61
2023-02-02T07:41:34.743Z,70.82
2023-02-02T07:44:01.854Z,71.92
2023-02-02T07:46:28.690Z,71.26
2023-02-02T07:48:56.466Z,71.28
2023-02-02T07:51:24.870Z,71.54
2023-02-02T07:53:54.431Z,71.66
2023-02-02T07:56:25.026Z,70.94
2023-02-02T07:58:53.775Z,70.62
2023-02-02T08:01:23.027Z,70.52
2023-02-02T08:03:50.857Z,70.93
2023-02-02T08:06:26.106Z,70.74
2023-02-02T08:08:53.121Z,71.10
2023-02-02T08:11:22.499Z,70.52
2023-02-02T08:13:52.065Z,70.92
2023-02-02T08:16:19.749Z,70.23
2023-02-02T08:18:47.192Z,69.95
2023-02-02T08:21:14.691Z,70.82
2023-02-02T08:23:42.762Z,70.35
2023-02-02T08:26:14.224Z,69.89
2023-02-02T08:28:43.075Z,70.32
2023-02-02T08:31:17.999Z,68.74
2023-02-02T08:33:45.367Z,68.99
2023-02-02T08:36:18.093Z,68.73
2023-02-02T08:38:45.825Z,68.48
2023-02-02T08:41:16.973Z,68.80
2023-02-02T08:43:44.404Z,68.31
2023-02-02T08:46:14.898Z,68.74
2023-02-02T08:48:42.378Z,69.13
2023-02-02T08:51:12.702Z,68.64
2023-02-02T08:53:39.516Z,68.53
2023-02-02T08:56:19.948Z,67.90
2023-02-02T08:58:52.442Z,69.50
2023-02-02T09:01:29.136Z,69.30
2023-02-02T09:04:04.519Z,68.96
2023-02-02T09:06:39.335Z,68.59
2023-02-02T09:09:09.806Z,68.67
2023-02-02T09:11:37.445Z,67.44
2023-02-02T09:14:06.421Z,68.17
2023-02-02T09:16:35.132Z,67.63
2023-02-02T09:19:02.395Z,68.36
2023-02-02T09:21:29.300Z,67.84
2023-02-02T09:23:56.325Z,68.58
2023-02-02T09:26:30.213Z,68.67
2023-02-02T09:29:02.482Z,68.95
2023-02-02T09:31:33.893Z,68.43
2023-02-02T09:34:06.851Z,68.06
2023-02-02T09:36:34.613Z,68.59
2023-02-02T09:39:01.716Z,69.06
2023-02-02T09:41:43.258Z,68.54
2023-02-02T09:44:19.095Z,69.26
2023-02-02T09:47:45.870Z,69.97
2023-02-02T09:50:33.255Z,69.57
2023-02-02T09:53:14.184Z,69.52
2023-02-02T09:55:45.557Z,69.28
2023-02-02T09:58:19.655Z,69.73
2023-02-02T10:01:13.553Z,69.67
2023-02-02T10:04:14.330Z,70.71
2023-02-02T10:06:44.975Z,70.30
2023-02-02T10:09:33.243Z,70.22
2023-02-02T10:12:43.616Z,70.38
2023-02-02T10:15:17.830Z,70.48
2023-02-02T10:17:50.768Z,70.11
2023-02-02T10:20:46.306Z,69.89
2023-02-02T10:23:27.532Z,69.55
2023-02-02T10:26:00.069Z,70.30
2023-02-02T10:28:45.263Z,70.57
2023-02-02T10:31:28.491Z,70.15
2023-02-02T10:34:20.928Z,71.72
2023-02-02T10:37:00.183Z,71.64
2023-02-02T10:40:32.397Z,70.55
2023-02-02T10:43:47.226Z,70.18
2023-02-02T10:46:25.041Z,71.48
2023-02-02T10:49:35.914Z,71.40
2023-02-02T10:52:12.002Z,71.38
2023-02-02T10:54:58.407Z,71.19
2023-02-02T10:57:49.408Z,71.38
2023-02-02T11:00:22.708Z,71.62
2023-02-02T11:02:51.495Z,71.79
2023-02-02T11:05:47.890Z,72.54
2023-02-02T11:08:33.167Z,71.24
2023-02-02T11:11:32.467Z,71.27
2023-02-02T11:14:08.467Z,71.04
2023-02-02T11:16:43.235Z,72.50
2023-02-02T11:19:20.103Z,71.42
2023-02-02T11:21:56.637Z,71.57
2023-02-02T11:24:29.717Z,71.80
2023-02-02T11:27:02.932Z,71.92
2023-02-02T11:29:46.997Z,72.55
2023-02-02T11:32:34.347Z,71.67
2023-02-02T11:35:04.339Z,71.32
2023-02-02T11:37:33.752Z,71.27
2023-02-02T11:41:04.347Z,72.52
2023-02-02T11:43:35.101Z,73.27
2023-02-02T11:46:19.048Z,73.08
2023-02-02T11:48:56.764Z,72.78
2023-02-02T11:51:26.122Z,72.11
2023-02-02T11:54:06.595Z,73.20
2023-02-02T11:56:36.893Z,73.04
2023-02-02T11:59:04.212Z,73.56
2023-02-02T12:01:41.830Z,73.42
2023-02-02T12:04:17.796Z,74.05
2023-02-02T12:06:45.715Z,73.92
2023-02-02T12:09:16.189Z,72.93
2023-02-02T12:12:10.019Z,73.36
2023-02-02T12:15:02.725Z,73.20
2023-02-02T12:17:45.197Z,73.91
2023-02-02T12:20:44.994Z,72.95
2023-02-02T12:23:29.848Z,72.66
2023-02-02T12:26:15.391Z,73.83
2023-02-02T12:29:16.765Z,72.47
2023-02-02T12:32:17.253Z,72.86
2023-02-02T12:35:02.088Z,72.74
2023-02-02T12:37:28.842Z,73.34
2023-02-02T12:40:32.514Z,72.15
2023-02-02T12:43:23.945Z,73.20
2023-02-02T12:46:21.103Z,73.50
2023-02-02T12:49:15.232Z,72.95
2023-02-02T12:52:23.719Z,74.26
2023-02-02T12:55:25.741Z,73.91
2023-02-02T12:58:09.147Z,73.23
2023-02-02T13:01:06.614Z,72.93
2023-02-02T13:03:54.160Z,74.85
2023-02-02T13:07:02.414Z,73.92
2023-02-02T13:09:47.212Z,73.73
2023-02-02T13:12:17.133Z,72.47
2023-02-02T13:14:55.322Z,74.36
2023-02-02T13:18:07.358Z,73.32
2023-02-02T13:20:51.309Z,74.61
2023-02-02T13:23:28.557Z,74.35
2023-02-02T13:26:01.715Z,74.15
2023-02-02T13:28:37.252Z,73.63
2023-02-02T13:31:14.671Z,73.77
2023-02-02T13:33:44.719Z,73.55
2023-02-02T13:36:25.886Z,73.57
2023-02-02T13:39:08.187Z,73.65
2023-02-02T13:41:37.064Z,73.32
2023-02-02T13:44:15.051Z,74.13
2023-02-02T13:47:20.029Z,73.67
2023-02-02T13:49:54.015Z,73.57
2023-02-02T13:53:17.122Z,73.82
2023-02-02T13:56:02.630Z,73.74
2023-02-02T13:59:04.887Z,73.48
2023-02-02T14:01:32.595Z,73.54
2023-02-02T14:04:00.871Z,73.81
2023-02-02T14:06:30.841Z,73.72
2023-02-02T14:09:02.310Z,73.26
2023-02-02T14:11:39.152Z,73.75
2023-02-02T14:14:35.277Z,73.89
2023-02-02T14:17:34.273Z,73.31
2023-02-02T14:20:03.752Z,73.18
2023-02-02T14:22:48.298Z,73.41
2023-02-02T14:25:33.362Z,73.28
2023-02-02T14:28:03.834Z,73.87
2023-02-02T14:30:35.072Z,73.74
2023-02-02T14:33:20.644Z,72.86
2023-02-02T14:35:47.371Z,73.15
2023-02-02T14:38:52.859Z,72.64
2023-02-02T14:42:20.164Z,73.92
2023-02-02T14:45:12.702Z,73.90
2023-02-02T14:47:42.404Z,73.50
2023-02-02T14:50:27.103Z,73.47
2023-02-02T14:53:11.883Z,72.75
2023-02-02T14:55:58.731Z,73.60
2023-02-02T14:58:48.702Z,73.41
2023-02-02T15:01:22.898Z,73.60
2023-02-02T15:04:20.793Z,73.16
2023-02-02T15:06:52.485Z,74.18
2023-02-02T15:09:28.384Z,74.39
2023-02-02T15:12:06.573Z,74.86
2023-02-02T15:14:38.165Z,73.72
2023-02-02T15:18:08.044Z,73.69
2023-02-02T15:20:48.835Z,74.73
2023-02-02T15:23:31.629Z,74.12
2023-02-02T15:26:17.722Z,74.90
2023-02-02T15:28:54.848Z,74.08
2023-02-02T15:31:34.889Z,73.99
2023-02-02T15:34:10.079Z,74.89
2023-02-02T15:36:43.769Z,75.81
2023-02-02T15:39:41.729Z,74.96
2023-02-02T15:42:37.432Z,74.94
2023-02-02T15:45:05.771Z,75.69
2023-02-02T15:47:37.145Z,75.69
2023-02-02T15:50:20.607Z,75.60
2023-02-02T15:52:50.473Z,75.63
2023-02-02T15:55:34.968Z,75.91
2023-02-02T15:58:03.158Z,75.22
2023-02-02T16:00:38.069Z,76.40
2023-02-02T16:03:10.521Z,75.07
2023-02-02T16:05:37.249Z,74.56
2023-02-02T16:08:27.746Z,74.87
2023-02-02T16:11:11.072Z,74.25
2023-02-02T16:13:40.262Z,75.33
2023-02-02T16:16:41.133Z,74.63
2023-02-02T16:19:22.777Z,75.50
2023-02-02T16:22:06.349Z,75.15
2023-02-02T16:24:49.346Z,74.65
2023-02-02T16:27:23.407Z,75.09
2023-02-02T16:29:51.137Z,74.86
2023-02-02T16:32:40.165Z,75.39
2023-02-02T16:35:35.686Z,75.47
2023-02-02T16:38:36.237Z,75.39
2023-02-02T16:41:25.411Z,75.48
2023-02-02T16:43:54.694Z,75.54
2023-02-02T16:46:46.155Z,74.94
2023-02-02T16:49:22.408Z,74.61
2023-02-02T16:52:16.404Z,74.92
2023-02-02T16:54:52.759Z,75.37
2023-02-02T16:57:34.319Z,75.88
2023-02-02T17:00:07.003Z,75.17
2023-02-02T17:02:38.932Z,75.21
2023-02-02T17:05:06.126Z,75.12
2023-02-02T17:07:35.934Z,74.49
2023-02-02T17:10:17.126Z,74.06
2023-02-02T17:12:45.894Z,74.99
2023-02-02T17:15:18.812Z,74.19
2023-02-02T17:17:50.389Z,73.98
2023-02-02T17:20:18.780Z,74.38
2023-02-02T17:22:53.344Z,74.28
2023-02-02T17:25:28.945Z,74.30
2023-02-02T17:27:58.568Z,74.81
2023-02-02T17:30:26.413Z,75.04
2023-02-02T17:32:53.245Z,74.98
2023-02-02T17:35:27.081Z,75.12
2023-02-02T17:37:55.326Z,74.59
2023-02-02T17:40:24.229Z,75.22
2023-02-02T17:42:53.393Z,74.78
2023-02-02T17:45:33.937Z,75.18
2023-02-02T17:48:03.654Z,73.74
2023-02-02T17:50:32.711Z,74.20
2023-02-02T17:53:00.149Z,73.55
2023-02-02T17:55:36.102Z,73.60
2023-02-02T17:58:03.738Z,74.02
2023-02-02T18:00:31.608Z,73.68
2023-02-02T18:03:26.041Z,73.97
2023-02-02T18:05:53.151Z,73.60
2023-02-02T18:08:20.228Z,72.94
2023-02-02T18:10:47.138Z,73.52
2023-02-02T18:13:16.321Z,73.26
2023-02-02T18:15:43.966Z,73.82
2023-02-02T18:18:13.949Z,74.01
2023-02-02T18:20:45.689Z,73.68
2023-02-02T18:23:13.490Z,73.96
2023-02-02T18:25:40.547Z,74.14
2023-02-02T18:28:09.116Z,73.44
2023-02-02T18:30:39.005Z,74.36
2023-02-02T18:33:09.140Z,74.59
2023-02-02T18:35:41.463Z,74.22
2023-02-02T18:38:09.132Z,73.59
2023-02-02T18:40:36.196Z,74.18
2023-02-02T18:43:03.135Z,74.74
2023-02-02T18:45:30.117Z,74.24
2023-02-02T18:47:57.215Z,74.31
2023-02-02T18:50:24.375Z,74.70
2023-02-02T18:52:51.279Z,74.94
2023-02-02T18:55:18.202Z,73.90
2023-02-02T18:57:45.023Z,74.43
2023-02-02T19:00:12.702Z,74.57
2023-02-02T19:02:39.618Z,73.62
2023-02-02T19:05:26.758Z,73.34
2023-02-02T19:07:57.085Z,73.69
2023-02-02T19:10:26.984Z,74.38
2023-02-02T19:12:58.043Z,74.89
2023-02-02T19:15:26.780Z,73.85
2023-02-02T19:17:55.119Z,74.08
2023-02-02T19:20:30.422Z,74.94
2023-02-02T19:23:16.293Z,74.64
2023-02-02T19:25:50.763Z,73.51
2023-02-02T19:28:31.507Z,73.75
2023-02-02T19:31:02.325Z,73.85
2023-02-02T19:33:42.164Z,74.23
2023-02-02T19:36:14.348Z,74.41
2023-02-02T19:38:41.285Z,74.08
2023-02-02T19:41:25.756Z,73.90
2023-02-02T19:43:58.869Z,73.25
2023-02-02T19:46:27.959Z,73.96
2023-02-02T19:49:07.579Z,74.72
2023-02-02T19:51:52.576Z,75.26
2023-02-02T19:54:31.197Z,74.96
2023-02-02T19:57:11.466Z,74.79
2023-02-02T19:59:38.462Z,74.51
2023-02-02T20:02:52.301Z,75.38
2023-02-02T20:05:24.326Z,74.90
2023-02-02T20:08:24.845Z,74.46
2023-02-02T20:10:54.583Z,74.63
2023-02-02T20:13:47.715Z,74.82
2023-02-02T20:16:23.625Z,75.45
2023-02-02T20:18:55.664Z,75.25
2023-02-02T20:21:45.404Z,74.74
2023-02-02T20:24:19.442Z,75.45
2023-02-02T20:26:46.570Z,75.88
2023-02-02T20:29:28.187Z,75.93
2023-02-02T20:31:58.564Z,76.04
2023-02-02T20:34:33.749Z,75.07
2023-02-02T20:37:16.292Z,75.21
2023-02-02T20:39:55.708Z,75.29
2023-02-02T20:42:23.188Z,75.87
2023-02-02T20:44:50.802Z,75.63
2023-02-02T20:47:17.954Z,76.80
2023-02-02T20:49:45.316Z,75.87
2023-02-02T20:52:23.082Z,75.35
2023-02-02T20:54:51.479Z,75.37
2023-02-02T20:57:19.040Z,75.17
2023-02-02T20:59:45.910Z,74.65
2023-02-02T21:02:19.289Z,75.67
2023-02-02T21:04:48.645Z,75.08
2023-02-02T21:07:18.481Z,74.18
2023-02-02T21:09:48.194Z,74.13
2023-02-02T21:12:16.382Z,75.10
2023-02-02T21:14:45.089Z,74.43
2023-02-02T21:17:15.726Z,75.18
2023-02-02T21:19:43.765Z,75.86
2023-02-02T21:22:11.617Z,75.64
2023-02-02T21:24:38.681Z,75.44
2023-02-02T21:27:05.578Z,75.68
2023-02-02T21:29:33.215Z,74.92
2023-02-02T21:32:02.455Z,75.38
2023-02-02T21:34:31.006Z,75.07
2023-02-02T21:36:58.812Z,75.51
2023-02-02T21:39:37.371Z,74.82
2023-02-02T21:42:19.398Z,75.00
2023-02-02T21:44:56.205Z,75.50
2023-02-02T21:47:27.670Z,74.98
2023-02-02T21:50:15.189Z,75.36
2023-02-02T21:52:42.416Z,75.03
2023-02-02T21:55:35.887Z,74.99
2023-02-02T21:58:34.143Z,74.81
2023-02-02T22:01:28.778Z,74.86
2023-02-02T22:03:55.683Z,74.64
2023-02-02T22:06:35.128Z,74.35
2023-02-02T22:09:18.631Z,74.83
2023-02-02T22:11:54.942Z,74.59
2023-02-02T22:14:36.108Z,74.38
2023-02-02T22:17:14.222Z,74.57
2023-02-02T22:19:43.647Z,75.05
2023-02-02T22:22:18.455Z,75.82
2023-02-02T22:24:50.991Z,74.63
2023-02-02T22:27:23.728Z,74.17
2023-02-02T22:29:58.534Z,74.78
2023-02-02T22:32:25.452Z,74.77
2023-02-02T22:34:52.419Z,74.58
2023-02-02T22:37:19.275Z,74.73
2023-02-02T22:39:46.109Z,74.48
2023-02-02T22:42:12.980Z,74.62
2023-02-02T22:44:39.837Z,75.25
2023-02-02T22:47:06.821Z,75.00
2023-02-02T22:49:33.633Z,74.94
2023-02-02T22:52:00.497Z,75.84
2023-02-02T22:54:27.419Z,75.61
2023-02-02T22:56:54.241Z,76.01
2023-02-02T22:59:21.067Z,75.13
2023-02-02T23:01:47.908Z,75.92
2023-02-02T23:04:15.014Z,75.79
2023-02-02T23:06:42.152Z,76.15
2023-02-02T23:09:09.036Z,76.77
2023-02-02T23:11:35.858Z,76.36
2023-02-02T23:14:02.838Z,76.71
2023-02-02T23:16:29.771Z,76.46
2023-02-02T23:18:56.671Z,76.40
2023-02-02T23:21:23.500Z,76.10
2023-02-02T23:23:50.408Z,76.54
2023-02-02T23:26:17.311Z,76.10
2023-02-02T23:28:44.164Z,76.07
2023-02-02T23:31:11.086Z,75.92
2023-02-02T23:33:37.976Z,75.45
2023-02-02T23:36:05.285Z,75.14
2023-02-02T23:38:32.107Z,75.21
2023-02-02T23:41:00.340Z,75.18
2023-02-02T23:43:27.672Z,74.86
2023-02-02T23:45:55.187Z,74.79
2023-02-02T23:48:22.025Z,75.49
2023-02-02T23:50:48.906Z,74.85
2023-02-02T23:53:15.985Z,74.35
2023-02-02T23:55:45.624Z,74.80
2023-02-02T23:58:14.535Z,74.66
